sensor_id;sensor_type;location;lat;lon;timestamp;temperature;humidity
13074;DHT22;6603;47.066;15.396;2022-10-16T00:01:52;10.10;99.90
13074;DHT22;6603;47.066;15.396;2022-10-16T00:04:17;10.20;99.90
13074;DHT22;6603;47.066;15.396;2022-10-16T00:06:43;10.20;99.90
13074;DHT22;6603;47.066;15.396;2022-10-16T00:09:09;10.20;99.90
13074;DHT22;6603;47.066;15.396;2022-10-16T00:11:37;10.40;99.90
13074;DHT22;6603;47.066;15.396;2022-10-16T00:14:06;10.30;99.90
13074;DHT22;6603;47.066;15.396;2022-10-16T00:16:34;10.40;99.90
13074;DHT22;6603;47.066;15.396;2022-10-16T00:19:00;10.50;99.90
13074;DHT22;6603;47.066;15.396;2022-10-16T00:21:28;10.40;99.90
13074;DHT22;6603;47.066;15.396;2022-10-16T00:23:57;10.40;99.90
13074;DHT22;6603;47.066;15.396;2022-10-16T00:26:25;10.40;99.90
13074;DHT22;6603;47.066;15.396;2022-10-16T00:28:51;10.50;99.90
13074;DHT22;6603;47.066;15.396;2022-10-16T00:31:20;10.50;99.90
13074;DHT22;6603;47.066;15.396;2022-10-16T00:33:47;10.60;99.90
13074;DHT22;6603;47.066;15.396;2022-10-16T00:36:15;10.70;99.90
13074;DHT22;6603;47.066;15.396;2022-10-16T00:38:42;10.70;99.90
13074;DHT22;6603;47.066;15.396;2022-10-16T00:41:12;10.70;99.90
13074;DHT22;6603;47.066;15.396;2022-10-16T00:43:41;10.60;99.90
13074;DHT22;6603;47.066;15.396;2022-10-16T00:46:19;10.50;99.90
13074;DHT22;6603;47.066;15.396;2022-10-16T00:49:08;10.50;99.90
13074;DHT22;6603;47.066;15.396;2022-10-16T00:51:43;10.50;99.90
13074;DHT22;6603;47.066;15.396;2022-10-16T00:54:23;10.60;99.90
13074;DHT22;6603;47.066;15.396;2022-10-16T00:56:50;10.60;99.90
13074;DHT22;6603;47.066;15.396;2022-10-16T00:59:24;10.60;99.90
13074;DHT22;6603;47.066;15.396;2022-10-16T01:01:51;10.40;99.90
13074;DHT22;6603;47.066;15.396;2022-10-16T01:04:18;10.40;99.90
13074;DHT22;6603;47.066;15.396;2022-10-16T01:09:33;10.00;99.90
13074;DHT22;6603;47.066;15.396;2022-10-16T01:17:22;10.00;99.90
13074;DHT22;6603;47.066;15.396;2022-10-16T01:22:57;10.20;99.90
13074;DHT22;6603;47.066;15.396;2022-10-16T01:28:30;10.30;99.90
13074;DHT22;6603;47.066;15.396;2022-10-16T01:31:00;10.10;99.90
13074;DHT22;6603;47.066;15.396;2022-10-16T01:33:40;10.20;99.90
13074;DHT22;6603;47.066;15.396;2022-10-16T01:36:14;10.10;99.90
13074;DHT22;6603;47.066;15.396;2022-10-16T01:38:43;10.10;99.90
13074;DHT22;6603;47.066;15.396;2022-10-16T01:46:13;10.20;99.90
13074;DHT22;6603;47.066;15.396;2022-10-16T01:48:41;10.10;99.90
13074;DHT22;6603;47.066;15.396;2022-10-16T01:51:11;10.00;99.90
13074;DHT22;6603;47.066;15.396;2022-10-16T01:53:39;9.90;99.90
13074;DHT22;6603;47.066;15.396;2022-10-16T01:56:08;10.10;99.90
13074;DHT22;6603;47.066;15.396;2022-10-16T01:58:45;10.10;99.90
13074;DHT22;6603;47.066;15.396;2022-10-16T02:01:15;10.20;99.90
13074;DHT22;6603;47.066;15.396;2022-10-16T02:03:43;10.30;99.90
13074;DHT22;6603;47.066;15.396;2022-10-16T02:06:10;10.30;99.90
13074;DHT22;6603;47.066;15.396;2022-10-16T02:08:37;10.30;99.90
13074;DHT22;6603;47.066;15.396;2022-10-16T02:11:04;10.30;99.90
13074;DHT22;6603;47.066;15.396;2022-10-16T02:13:34;10.20;99.90
13074;DHT22;6603;47.066;15.396;2022-10-16T02:16:01;10.00;99.90
13074;DHT22;6603;47.066;15.396;2022-10-16T02:18:27;10.00;99.90
13074;DHT22;6603;47.066;15.396;2022-10-16T02:21:03;10.10;99.90
13074;DHT22;6603;47.066;15.396;2022-10-16T02:26:28;10.30;99.90
13074;DHT22;6603;47.066;15.396;2022-10-16T02:29:00;10.20;99.90
13074;DHT22;6603;47.066;15.396;2022-10-16T02:31:32;10.10;99.90
13074;DHT22;6603;47.066;15.396;2022-10-16T02:34:02;10.10;99.90
13074;DHT22;6603;47.066;15.396;2022-10-16T02:36:31;10.00;99.90
13074;DHT22;6603;47.066;15.396;2022-10-16T02:38:58;9.90;99.90
13074;DHT22;6603;47.066;15.396;2022-10-16T02:41:27;10.00;99.90
13074;DHT22;6603;47.066;15.396;2022-10-16T02:43:53;9.90;99.90
13074;DHT22;6603;47.066;15.396;2022-10-16T02:46:21;9.80;99.90
13074;DHT22;6603;47.066;15.396;2022-10-16T02:48:47;9.80;99.90
13074;DHT22;6603;47.066;15.396;2022-10-16T02:51:12;9.90;99.90
13074;DHT22;6603;47.066;15.396;2022-10-16T02:53:38;9.90;99.90
13074;DHT22;6603;47.066;15.396;2022-10-16T02:56:04;10.00;99.90
13074;DHT22;6603;47.066;15.396;2022-10-16T02:58:30;10.10;99.90
13074;DHT22;6603;47.066;15.396;2022-10-16T03:00:56;10.20;99.90
13074;DHT22;6603;47.066;15.396;2022-10-16T03:03:22;10.30;99.90
13074;DHT22;6603;47.066;15.396;2022-10-16T03:05:48;10.30;99.90
13074;DHT22;6603;47.066;15.396;2022-10-16T03:08:14;10.30;99.90
13074;DHT22;6603;47.066;15.396;2022-10-16T03:10:41;10.40;99.90
13074;DHT22;6603;47.066;15.396;2022-10-16T03:13:07;10.30;99.90
13074;DHT22;6603;47.066;15.396;2022-10-16T03:15:33;10.50;99.90
13074;DHT22;6603;47.066;15.396;2022-10-16T03:17:59;10.50;99.90
13074;DHT22;6603;47.066;15.396;2022-10-16T03:20:26;10.40;99.90
13074;DHT22;6603;47.066;15.396;2022-10-16T03:22:52;10.40;99.90
13074;DHT22;6603;47.066;15.396;2022-10-16T03:25:18;10.50;99.90
13074;DHT22;6603;47.066;15.396;2022-10-16T03:27:44;10.50;99.90
13074;DHT22;6603;47.066;15.396;2022-10-16T03:30:11;10.60;99.90
13074;DHT22;6603;47.066;15.396;2022-10-16T03:32:37;10.60;99.90
13074;DHT22;6603;47.066;15.396;2022-10-16T03:35:03;10.70;99.90
13074;DHT22;6603;47.066;15.396;2022-10-16T03:37:29;10.70;99.90
13074;DHT22;6603;47.066;15.396;2022-10-16T03:39:55;10.70;99.90
13074;DHT22;6603;47.066;15.396;2022-10-16T03:42:21;10.60;99.90
13074;DHT22;6603;47.066;15.396;2022-10-16T03:44:48;10.60;99.90
13074;DHT22;6603;47.066;15.396;2022-10-16T03:47:14;10.50;99.90
13074;DHT22;6603;47.066;15.396;2022-10-16T03:49:40;10.60;99.90
13074;DHT22;6603;47.066;15.396;2022-10-16T03:52:06;10.50;99.90
13074;DHT22;6603;47.066;15.396;2022-10-16T03:54:33;10.40;99.90
13074;DHT22;6603;47.066;15.396;2022-10-16T03:56:58;10.40;99.90
13074;DHT22;6603;47.066;15.396;2022-10-16T03:59:25;10.40;99.90
13074;DHT22;6603;47.066;15.396;2022-10-16T04:01:51;10.50;99.90
13074;DHT22;6603;47.066;15.396;2022-10-16T04:04:16;10.50;99.90
13074;DHT22;6603;47.066;15.396;2022-10-16T04:06:42;10.40;99.90
13074;DHT22;6603;47.066;15.396;2022-10-16T04:09:08;10.50;99.90
13074;DHT22;6603;47.066;15.396;2022-10-16T04:11:34;10.50;99.90
13074;DHT22;6603;47.066;15.396;2022-10-16T04:14:00;10.40;99.90
13074;DHT22;6603;47.066;15.396;2022-10-16T04:16:26;10.50;99.90
13074;DHT22;6603;47.066;15.396;2022-10-16T04:18:51;10.40;99.90
13074;DHT22;6603;47.066;15.396;2022-10-16T04:21:17;10.50;99.90
13074;DHT22;6603;47.066;15.396;2022-10-16T04:23:43;10.50;99.90
13074;DHT22;6603;47.066;15.396;2022-10-16T04:26:09;10.60;99.90
13074;DHT22;6603;47.066;15.396;2022-10-16T04:28:36;10.60;99.90
13074;DHT22;6603;47.066;15.396;2022-10-16T04:31:06;10.50;99.90
13074;DHT22;6603;47.066;15.396;2022-10-16T04:33:32;10.70;99.90
13074;DHT22;6603;47.066;15.396;2022-10-16T04:36:01;10.70;99.90
13074;DHT22;6603;47.066;15.396;2022-10-16T04:38:29;10.70;99.90
13074;DHT22;6603;47.066;15.396;2022-10-16T04:40:55;10.70;99.90
13074;DHT22;6603;47.066;15.396;2022-10-16T04:43:21;10.60;99.90
13074;DHT22;6603;47.066;15.396;2022-10-16T04:45:47;10.80;99.90
13074;DHT22;6603;47.066;15.396;2022-10-16T04:48:14;10.80;99.90
13074;DHT22;6603;47.066;15.396;2022-10-16T04:50:41;10.60;99.90
13074;DHT22;6603;47.066;15.396;2022-10-16T04:53:07;10.60;99.90
13074;DHT22;6603;47.066;15.396;2022-10-16T04:55:33;10.70;99.90
13074;DHT22;6603;47.066;15.396;2022-10-16T04:57:58;10.60;99.90
13074;DHT22;6603;47.066;15.396;2022-10-16T05:00:24;10.60;99.90
13074;DHT22;6603;47.066;15.396;2022-10-16T05:02:51;10.70;99.90
13074;DHT22;6603;47.066;15.396;2022-10-16T05:05:17;10.40;99.90
13074;DHT22;6603;47.066;15.396;2022-10-16T05:07:46;10.50;99.90
13074;DHT22;6603;47.066;15.396;2022-10-16T05:10:12;10.60;99.90
13074;DHT22;6603;47.066;15.396;2022-10-16T05:12:38;10.70;99.90
13074;DHT22;6603;47.066;15.396;2022-10-16T05:15:04;10.60;99.90
13074;DHT22;6603;47.066;15.396;2022-10-16T05:17:30;10.60;99.90
13074;DHT22;6603;47.066;15.396;2022-10-16T05:19:56;10.70;99.90
13074;DHT22;6603;47.066;15.396;2022-10-16T05:22:21;10.70;99.90
13074;DHT22;6603;47.066;15.396;2022-10-16T05:24:47;10.70;99.90
13074;DHT22;6603;47.066;15.396;2022-10-16T05:27:13;10.60;99.90
13074;DHT22;6603;47.066;15.396;2022-10-16T05:29:48;10.50;99.90
13074;DHT22;6603;47.066;15.396;2022-10-16T05:32:15;10.60;99.90
13074;DHT22;6603;47.066;15.396;2022-10-16T05:34:41;10.70;99.90
13074;DHT22;6603;47.066;15.396;2022-10-16T05:37:07;10.70;99.90
13074;DHT22;6603;47.066;15.396;2022-10-16T05:39:33;10.70;99.90
13074;DHT22;6603;47.066;15.396;2022-10-16T05:41:59;10.70;99.90
13074;DHT22;6603;47.066;15.396;2022-10-16T05:44:25;10.60;99.90
13074;DHT22;6603;47.066;15.396;2022-10-16T05:46:51;10.60;99.90
13074;DHT22;6603;47.066;15.396;2022-10-16T05:49:16;10.60;99.90
13074;DHT22;6603;47.066;15.396;2022-10-16T05:51:42;10.60;99.90
13074;DHT22;6603;47.066;15.396;2022-10-16T05:54:08;10.60;99.90
13074;DHT22;6603;47.066;15.396;2022-10-16T05:56:34;10.60;99.90
13074;DHT22;6603;47.066;15.396;2022-10-16T05:59:00;10.60;99.90
13074;DHT22;6603;47.066;15.396;2022-10-16T06:01:25;10.60;99.90
13074;DHT22;6603;47.066;15.396;2022-10-16T06:03:52;10.70;99.90
13074;DHT22;6603;47.066;15.396;2022-10-16T06:06:23;10.70;99.90
13074;DHT22;6603;47.066;15.396;2022-10-16T06:08:51;10.70;99.90
13074;DHT22;6603;47.066;15.396;2022-10-16T06:11:26;10.70;99.90
13074;DHT22;6603;47.066;15.396;2022-10-16T06:13:56;10.80;99.90
13074;DHT22;6603;47.066;15.396;2022-10-16T06:16:24;10.90;99.90
13074;DHT22;6603;47.066;15.396;2022-10-16T06:18:51;10.90;99.90
13074;DHT22;6603;47.066;15.396;2022-10-16T06:21:21;10.80;99.90
13074;DHT22;6603;47.066;15.396;2022-10-16T06:23:47;10.80;99.90
13074;DHT22;6603;47.066;15.396;2022-10-16T06:26:15;10.90;99.90
13074;DHT22;6603;47.066;15.396;2022-10-16T06:28:42;10.90;99.90
13074;DHT22;6603;47.066;15.396;2022-10-16T06:31:09;11.00;99.90
13074;DHT22;6603;47.066;15.396;2022-10-16T06:33:36;10.90;99.90
13074;DHT22;6603;47.066;15.396;2022-10-16T06:36:06;11.00;99.90
13074;DHT22;6603;47.066;15.396;2022-10-16T06:38:32;10.90;99.90
13074;DHT22;6603;47.066;15.396;2022-10-16T06:40:58;10.90;99.90
13074;DHT22;6603;47.066;15.396;2022-10-16T06:43:24;10.90;99.90
13074;DHT22;6603;47.066;15.396;2022-10-16T06:45:52;11.00;99.90
13074;DHT22;6603;47.066;15.396;2022-10-16T06:48:20;11.00;99.90
13074;DHT22;6603;47.066;15.396;2022-10-16T06:53:37;11.10;99.90
13074;DHT22;6603;47.066;15.396;2022-10-16T06:58:38;11.20;99.90
13074;DHT22;6603;47.066;15.396;2022-10-16T07:01:05;11.30;99.90
13074;DHT22;6603;47.066;15.396;2022-10-16T07:03:31;11.30;99.90
13074;DHT22;6603;47.066;15.396;2022-10-16T07:05:57;11.30;99.90
13074;DHT22;6603;47.066;15.396;2022-10-16T07:08:26;11.40;99.90
13074;DHT22;6603;47.066;15.396;2022-10-16T07:11:02;11.50;99.90
13074;DHT22;6603;47.066;15.396;2022-10-16T07:13:28;11.40;99.90
13074;DHT22;6603;47.066;15.396;2022-10-16T07:15:53;11.50;99.90
13074;DHT22;6603;47.066;15.396;2022-10-16T07:18:19;11.50;99.90
13074;DHT22;6603;47.066;15.396;2022-10-16T07:20:45;11.50;99.90
13074;DHT22;6603;47.066;15.396;2022-10-16T07:23:12;11.50;99.90
13074;DHT22;6603;47.066;15.396;2022-10-16T07:25:39;11.40;99.90
13074;DHT22;6603;47.066;15.396;2022-10-16T07:28:05;11.50;99.90
13074;DHT22;6603;47.066;15.396;2022-10-16T07:30:30;11.70;99.90
13074;DHT22;6603;47.066;15.396;2022-10-16T07:32:59;11.70;99.90
13074;DHT22;6603;47.066;15.396;2022-10-16T07:35:25;11.70;99.90
13074;DHT22;6603;47.066;15.396;2022-10-16T07:37:51;11.70;99.90
13074;DHT22;6603;47.066;15.396;2022-10-16T07:40:17;11.60;99.90
13074;DHT22;6603;47.066;15.396;2022-10-16T07:42:43;11.80;99.90
13074;DHT22;6603;47.066;15.396;2022-10-16T07:45:09;11.70;99.90
13074;DHT22;6603;47.066;15.396;2022-10-16T07:47:35;11.70;99.90
13074;DHT22;6603;47.066;15.396;2022-10-16T07:50:02;11.80;99.90
13074;DHT22;6603;47.066;15.396;2022-10-16T07:52:28;11.80;99.90
13074;DHT22;6603;47.066;15.396;2022-10-16T07:54:54;11.90;99.90
13074;DHT22;6603;47.066;15.396;2022-10-16T07:57:20;12.10;99.90
13074;DHT22;6603;47.066;15.396;2022-10-16T07:59:46;12.10;99.90
13074;DHT22;6603;47.066;15.396;2022-10-16T08:02:12;12.30;99.90
13074;DHT22;6603;47.066;15.396;2022-10-16T08:04:38;12.40;99.90
13074;DHT22;6603;47.066;15.396;2022-10-16T08:07:04;12.60;99.90
13074;DHT22;6603;47.066;15.396;2022-10-16T08:09:31;12.60;99.90
13074;DHT22;6603;47.066;15.396;2022-10-16T08:11:57;12.60;99.90
13074;DHT22;6603;47.066;15.396;2022-10-16T08:14:23;12.70;99.90
13074;DHT22;6603;47.066;15.396;2022-10-16T08:16:50;12.60;99.90
13074;DHT22;6603;47.066;15.396;2022-10-16T08:19:16;12.70;99.90
13074;DHT22;6603;47.066;15.396;2022-10-16T08:21:42;12.60;99.90
13074;DHT22;6603;47.066;15.396;2022-10-16T08:24:08;12.60;99.90
13074;DHT22;6603;47.066;15.396;2022-10-16T08:26:34;12.70;99.90
13074;DHT22;6603;47.066;15.396;2022-10-16T08:29:00;12.80;99.90
13074;DHT22;6603;47.066;15.396;2022-10-16T08:31:26;12.70;99.90
13074;DHT22;6603;47.066;15.396;2022-10-16T08:33:52;12.80;99.90
13074;DHT22;6603;47.066;15.396;2022-10-16T08:36:18;12.90;99.90
13074;DHT22;6603;47.066;15.396;2022-10-16T08:38:47;13.00;99.90
13074;DHT22;6603;47.066;15.396;2022-10-16T08:49:23;13.30;99.90
13074;DHT22;6603;47.066;15.396;2022-10-16T08:51:50;13.50;99.90
13074;DHT22;6603;47.066;15.396;2022-10-16T08:54:32;13.60;99.90
13074;DHT22;6603;47.066;15.396;2022-10-16T08:57:23;13.70;99.90
13074;DHT22;6603;47.066;15.396;2022-10-16T08:59:51;13.80;99.90
13074;DHT22;6603;47.066;15.396;2022-10-16T09:02:28;14.00;99.90
13074;DHT22;6603;47.066;15.396;2022-10-16T09:05:11;14.10;99.90
13074;DHT22;6603;47.066;15.396;2022-10-16T09:10:54;14.50;99.90
13074;DHT22;6603;47.066;15.396;2022-10-16T09:19:26;14.80;99.90
13074;DHT22;6603;47.066;15.396;2022-10-16T09:21:54;14.90;99.90
13074;DHT22;6603;47.066;15.396;2022-10-16T09:24:23;15.00;99.90
13074;DHT22;6603;47.066;15.396;2022-10-16T09:26:49;15.10;99.90
13074;DHT22;6603;47.066;15.396;2022-10-16T09:29:20;15.20;99.90
13074;DHT22;6603;47.066;15.396;2022-10-16T09:31:47;15.40;99.90
13074;DHT22;6603;47.066;15.396;2022-10-16T09:34:34;15.50;99.90
13074;DHT22;6603;47.066;15.396;2022-10-16T09:37:04;15.60;99.90
13074;DHT22;6603;47.066;15.396;2022-10-16T09:39:47;15.70;99.90
13074;DHT22;6603;47.066;15.396;2022-10-16T09:42:34;15.90;99.90
13074;DHT22;6603;47.066;15.396;2022-10-16T09:45:02;16.00;99.90
13074;DHT22;6603;47.066;15.396;2022-10-16T09:47:30;16.00;99.90
13074;DHT22;6603;47.066;15.396;2022-10-16T09:49:58;16.10;99.90
13074;DHT22;6603;47.066;15.396;2022-10-16T09:52:28;16.30;99.90
13074;DHT22;6603;47.066;15.396;2022-10-16T09:54:58;16.40;99.90
13074;DHT22;6603;47.066;15.396;2022-10-16T09:57:25;16.60;99.90
13074;DHT22;6603;47.066;15.396;2022-10-16T09:59:58;16.70;86.30
13074;DHT22;6603;47.066;15.396;2022-10-16T10:02:30;16.90;94.00
13074;DHT22;6603;47.066;15.396;2022-10-16T10:04:56;16.90;29.80
13074;DHT22;6603;47.066;15.396;2022-10-16T10:07:33;17.00;44.40
13074;DHT22;6603;47.066;15.396;2022-10-16T10:10:04;17.10;66.10
13074;DHT22;6603;47.066;15.396;2022-10-16T10:12:32;17.30;35.00
13074;DHT22;6603;47.066;15.396;2022-10-16T10:15:10;17.40;30.50
13074;DHT22;6603;47.066;15.396;2022-10-16T10:17:46;17.40;28.10
13074;DHT22;6603;47.066;15.396;2022-10-16T10:22:51;17.50;1.00
13074;DHT22;6603;47.066;15.396;2022-10-16T10:28:17;17.80;1.00
13074;DHT22;6603;47.066;15.396;2022-10-16T10:30:53;17.90;1.00
13074;DHT22;6603;47.066;15.396;2022-10-16T10:33:47;18.10;1.00
13074;DHT22;6603;47.066;15.396;2022-10-16T10:36:29;18.20;1.00
13074;DHT22;6603;47.066;15.396;2022-10-16T10:39:28;18.30;1.00
13074;DHT22;6603;47.066;15.396;2022-10-16T10:47:45;18.50;1.00
13074;DHT22;6603;47.066;15.396;2022-10-16T10:53:06;18.70;99.90
13074;DHT22;6603;47.066;15.396;2022-10-16T10:55:46;18.90;1.00
13074;DHT22;6603;47.066;15.396;2022-10-16T11:03:35;19.10;78.90
13074;DHT22;6603;47.066;15.396;2022-10-16T11:06:11;19.20;1.00
13074;DHT22;6603;47.066;15.396;2022-10-16T11:08:48;19.40;1.00
13074;DHT22;6603;47.066;15.396;2022-10-16T11:11:36;19.50;99.90
13074;DHT22;6603;47.066;15.396;2022-10-16T11:14:31;19.60;1.00
13074;DHT22;6603;47.066;15.396;2022-10-16T11:17:13;19.70;99.90
13074;DHT22;6603;47.066;15.396;2022-10-16T11:19:51;19.70;1.00
13074;DHT22;6603;47.066;15.396;2022-10-16T11:22:30;19.80;1.00
13074;DHT22;6603;47.066;15.396;2022-10-16T11:27:57;20.10;1.00
13074;DHT22;6603;47.066;15.396;2022-10-16T11:31:13;20.10;1.00
13074;DHT22;6603;47.066;15.396;2022-10-16T11:41:27;20.30;1.00
13074;DHT22;6603;47.066;15.396;2022-10-16T11:49:40;20.70;99.90
13074;DHT22;6603;47.066;15.396;2022-10-16T11:53:27;20.50;1.00
13074;DHT22;6603;47.066;15.396;2022-10-16T11:55:50;20.80;99.90
13074;DHT22;6603;47.066;15.396;2022-10-16T11:58:32;20.90;1.00
13074;DHT22;6603;47.066;15.396;2022-10-16T12:08:39;21.00;99.90
13074;DHT22;6603;47.066;15.396;2022-10-16T12:17:01;21.10;1.00
13074;DHT22;6603;47.066;15.396;2022-10-16T12:19:31;21.40;99.90
13074;DHT22;6603;47.066;15.396;2022-10-16T12:21:59;21.40;1.00
13074;DHT22;6603;47.066;15.396;2022-10-16T12:24:34;21.50;99.90
13074;DHT22;6603;47.066;15.396;2022-10-16T12:27:02;21.50;99.90
13074;DHT22;6603;47.066;15.396;2022-10-16T12:29:38;21.50;99.90
13074;DHT22;6603;47.066;15.396;2022-10-16T12:32:20;21.50;99.90
13074;DHT22;6603;47.066;15.396;2022-10-16T12:34:48;21.70;80.20
13074;DHT22;6603;47.066;15.396;2022-10-16T12:37:21;21.70;1.00
13074;DHT22;6603;47.066;15.396;2022-10-16T12:39:49;21.80;1.00
13074;DHT22;6603;47.066;15.396;2022-10-16T12:42:23;21.60;1.00
13074;DHT22;6603;47.066;15.396;2022-10-16T12:44:49;21.90;1.00
13074;DHT22;6603;47.066;15.396;2022-10-16T12:47:24;22.00;1.00
13074;DHT22;6603;47.066;15.396;2022-10-16T12:50:00;21.80;1.00
13074;DHT22;6603;47.066;15.396;2022-10-16T12:52:37;21.70;1.00
13074;DHT22;6603;47.066;15.396;2022-10-16T12:55:05;21.90;1.00
13074;DHT22;6603;47.066;15.396;2022-10-16T13:05:57;21.90;1.00
13074;DHT22;6603;47.066;15.396;2022-10-16T13:30:22;22.40;1.00
13074;DHT22;6603;47.066;15.396;2022-10-16T13:33:01;22.10;1.00
13074;DHT22;6603;47.066;15.396;2022-10-16T13:35:33;22.20;1.00
13074;DHT22;6603;47.066;15.396;2022-10-16T13:38:13;22.20;24.70
13074;DHT22;6603;47.066;15.396;2022-10-16T13:41:02;22.10;1.00
13074;DHT22;6603;47.066;15.396;2022-10-16T13:43:32;22.10;1.00
13074;DHT22;6603;47.066;15.396;2022-10-16T13:46:04;22.30;1.00
13074;DHT22;6603;47.066;15.396;2022-10-16T13:48:31;22.30;99.90
13074;DHT22;6603;47.066;15.396;2022-10-16T13:51:15;22.10;1.00
13074;DHT22;6603;47.066;15.396;2022-10-16T13:53:43;22.20;58.40
13074;DHT22;6603;47.066;15.396;2022-10-16T13:56:20;22.00;1.00
13074;DHT22;6603;47.066;15.396;2022-10-16T13:59:04;22.10;1.00
13074;DHT22;6603;47.066;15.396;2022-10-16T14:01:50;22.10;1.00
13074;DHT22;6603;47.066;15.396;2022-10-16T14:04:17;22.10;1.00
13074;DHT22;6603;47.066;15.396;2022-10-16T14:06:46;21.90;1.00
13074;DHT22;6603;47.066;15.396;2022-10-16T14:09:29;21.90;1.00
13074;DHT22;6603;47.066;15.396;2022-10-16T14:11:59;21.90;1.00
13074;DHT22;6603;47.066;15.396;2022-10-16T14:14:30;21.60;45.70
13074;DHT22;6603;47.066;15.396;2022-10-16T14:16:58;21.60;53.40
13074;DHT22;6603;47.066;15.396;2022-10-16T14:19:28;21.60;99.90
13074;DHT22;6603;47.066;15.396;2022-10-16T14:21:56;21.60;99.90
13074;DHT22;6603;47.066;15.396;2022-10-16T14:24:31;21.40;1.00
13074;DHT22;6603;47.066;15.396;2022-10-16T14:26:58;21.50;51.30
13074;DHT22;6603;47.066;15.396;2022-10-16T14:29:26;21.40;99.90
13074;DHT22;6603;47.066;15.396;2022-10-16T14:32:00;21.30;1.00
13074;DHT22;6603;47.066;15.396;2022-10-16T14:34:35;21.20;1.00
13074;DHT22;6603;47.066;15.396;2022-10-16T14:37:13;21.20;1.00
13074;DHT22;6603;47.066;15.396;2022-10-16T14:39:40;21.10;1.00
13074;DHT22;6603;47.066;15.396;2022-10-16T14:42:14;21.10;1.00
13074;DHT22;6603;47.066;15.396;2022-10-16T14:44:43;21.00;1.00
13074;DHT22;6603;47.066;15.396;2022-10-16T14:47:13;20.90;1.00
13074;DHT22;6603;47.066;15.396;2022-10-16T14:49:41;20.60;1.00
13074;DHT22;6603;47.066;15.396;2022-10-16T14:52:12;20.60;1.00
13074;DHT22;6603;47.066;15.396;2022-10-16T14:54:39;20.50;11.30
13074;DHT22;6603;47.066;15.396;2022-10-16T14:57:13;20.40;1.00
13074;DHT22;6603;47.066;15.396;2022-10-16T14:59:42;20.30;1.00
13074;DHT22;6603;47.066;15.396;2022-10-16T15:02:43;20.30;1.00
13074;DHT22;6603;47.066;15.396;2022-10-16T15:05:14;20.20;1.00
13074;DHT22;6603;47.066;15.396;2022-10-16T15:07:40;20.10;1.00
13074;DHT22;6603;47.066;15.396;2022-10-16T15:10:06;19.80;1.00
13074;DHT22;6603;47.066;15.396;2022-10-16T15:12:32;19.70;99.90
13074;DHT22;6603;47.066;15.396;2022-10-16T15:14:58;19.50;1.00
13074;DHT22;6603;47.066;15.396;2022-10-16T15:17:24;19.50;99.90
13074;DHT22;6603;47.066;15.396;2022-10-16T15:19:50;19.20;1.00
13074;DHT22;6603;47.066;15.396;2022-10-16T15:22:17;19.10;1.00
13074;DHT22;6603;47.066;15.396;2022-10-16T15:24:43;18.90;1.00
13074;DHT22;6603;47.066;15.396;2022-10-16T15:27:09;18.80;1.00
13074;DHT22;6603;47.066;15.396;2022-10-16T15:29:35;18.60;1.00
13074;DHT22;6603;47.066;15.396;2022-10-16T15:32:01;18.40;1.00
13074;DHT22;6603;47.066;15.396;2022-10-16T15:34:27;18.30;1.00
13074;DHT22;6603;47.066;15.396;2022-10-16T15:36:52;18.20;1.00
13074;DHT22;6603;47.066;15.396;2022-10-16T15:39:21;18.20;1.00
13074;DHT22;6603;47.066;15.396;2022-10-16T15:41:47;18.10;1.00
13074;DHT22;6603;47.066;15.396;2022-10-16T15:44:16;18.00;1.00
13074;DHT22;6603;47.066;15.396;2022-10-16T15:46:43;18.00;1.00
13074;DHT22;6603;47.066;15.396;2022-10-16T15:49:09;17.70;1.00
13074;DHT22;6603;47.066;15.396;2022-10-16T15:51:39;17.40;1.00
13074;DHT22;6603;47.066;15.396;2022-10-16T15:54:05;17.20;1.00
13074;DHT22;6603;47.066;15.396;2022-10-16T15:56:30;17.00;1.00
13074;DHT22;6603;47.066;15.396;2022-10-16T15:58:59;16.90;13.50
13074;DHT22;6603;47.066;15.396;2022-10-16T16:01:26;16.70;26.40
13074;DHT22;6603;47.066;15.396;2022-10-16T16:03:54;16.50;31.80
13074;DHT22;6603;47.066;15.396;2022-10-16T16:06:21;16.50;38.80
13074;DHT22;6603;47.066;15.396;2022-10-16T16:08:50;16.40;84.30
13074;DHT22;6603;47.066;15.396;2022-10-16T16:11:17;16.30;99.90
13074;DHT22;6603;47.066;15.396;2022-10-16T16:13:43;16.30;93.90
13074;DHT22;6603;47.066;15.396;2022-10-16T16:16:14;16.00;99.90
13074;DHT22;6603;47.066;15.396;2022-10-16T16:18:41;15.80;99.90
13074;DHT22;6603;47.066;15.396;2022-10-16T16:21:10;15.60;99.90
13074;DHT22;6603;47.066;15.396;2022-10-16T16:23:39;15.60;99.90
13074;DHT22;6603;47.066;15.396;2022-10-16T16:26:12;15.50;99.90
13074;DHT22;6603;47.066;15.396;2022-10-16T16:28:40;15.50;99.90
13074;DHT22;6603;47.066;15.396;2022-10-16T16:31:06;15.40;99.90
13074;DHT22;6603;47.066;15.396;2022-10-16T16:33:33;15.20;99.90
13074;DHT22;6603;47.066;15.396;2022-10-16T16:36:01;15.00;99.90
13074;DHT22;6603;47.066;15.396;2022-10-16T16:38:27;15.00;99.90
13074;DHT22;6603;47.066;15.396;2022-10-16T16:40:54;14.90;99.90
13074;DHT22;6603;47.066;15.396;2022-10-16T16:43:24;14.90;99.90
13074;DHT22;6603;47.066;15.396;2022-10-16T16:45:50;15.00;99.90
13074;DHT22;6603;47.066;15.396;2022-10-16T16:48:16;14.80;99.90
13074;DHT22;6603;47.066;15.396;2022-10-16T16:50:42;14.60;99.90
13074;DHT22;6603;47.066;15.396;2022-10-16T16:53:08;14.50;99.90
13074;DHT22;6603;47.066;15.396;2022-10-16T16:55:33;14.50;99.90
13074;DHT22;6603;47.066;15.396;2022-10-16T16:58:00;14.60;99.90
13074;DHT22;6603;47.066;15.396;2022-10-16T17:00:25;14.60;99.90
13074;DHT22;6603;47.066;15.396;2022-10-16T17:02:52;14.50;99.90
13074;DHT22;6603;47.066;15.396;2022-10-16T17:05:18;14.30;99.90
13074;DHT22;6603;47.066;15.396;2022-10-16T17:07:44;14.10;99.90
13074;DHT22;6603;47.066;15.396;2022-10-16T17:10:10;14.10;99.90
13074;DHT22;6603;47.066;15.396;2022-10-16T17:12:36;14.20;99.90
13074;DHT22;6603;47.066;15.396;2022-10-16T17:15:02;14.30;99.90
13074;DHT22;6603;47.066;15.396;2022-10-16T17:17:28;14.20;99.90
13074;DHT22;6603;47.066;15.396;2022-10-16T17:19:53;14.00;99.90
13074;DHT22;6603;47.066;15.396;2022-10-16T17:22:20;13.90;99.90
13074;DHT22;6603;47.066;15.396;2022-10-16T17:24:50;13.70;99.90
13074;DHT22;6603;47.066;15.396;2022-10-16T17:27:20;13.70;99.90
13074;DHT22;6603;47.066;15.396;2022-10-16T17:29:50;13.70;99.90
13074;DHT22;6603;47.066;15.396;2022-10-16T17:32:17;13.60;99.90
13074;DHT22;6603;47.066;15.396;2022-10-16T17:34:46;13.50;99.90
13074;DHT22;6603;47.066;15.396;2022-10-16T17:37:12;13.70;99.90
13074;DHT22;6603;47.066;15.396;2022-10-16T17:39:38;13.60;99.90
13074;DHT22;6603;47.066;15.396;2022-10-16T17:42:04;13.50;99.90
13074;DHT22;6603;47.066;15.396;2022-10-16T17:44:30;13.50;99.90
13074;DHT22;6603;47.066;15.396;2022-10-16T17:46:56;13.50;99.90
13074;DHT22;6603;47.066;15.396;2022-10-16T17:49:22;13.20;99.90
13074;DHT22;6603;47.066;15.396;2022-10-16T17:51:52;13.20;99.90
13074;DHT22;6603;47.066;15.396;2022-10-16T17:54:19;13.20;99.90